Flight Track Log - Related Links

Times and Time Zones

All times are in EDT time to prevent confusion due to time zone crossing. See the AWI3891 flight status page for this flight to view local times or setup timezone preferences in your user account.


Time Position Orientation Groundspeed Altitude Reporting Facility
EDT Latitude Longitude Course Direction KTS MPH feet Rate Location/Type
Thu 01:37:02 PM 39.8667 -75.2667 90° East 180 207 600  Level Philadelphia TRACON
Thu 01:38:44 PM 39.8000 -75.3333 218° Southwest 200 230 4,900 2,385 Climbing Philadelphia TRACON
Thu 01:39:38 PM 39.7333 -75.3167 169° South 270 311 6,800 1,842 Climbing Philadelphia TRACON
Thu 01:40:00 PM 39.7856 -74.6886 75° East  Level FlightAware Approximate
Thu 01:40:38 PM 39.7500 -75.2167 78° East 317 365 8,400  Level Philadelphia TRACON
Thu 01:41:00 PM 39.8000 -74.5490 90° East  Level FlightAware Approximate
Thu 01:41:32 PM 39.7500 -75.1167 90° East 320 368 10,500  Level Philadelphia TRACON
Thu 01:42:00 PM 39.8167 -74.4178 90° East  Level FlightAware Approximate
Thu 01:43:17 PM 39.7697 -74.9167 83° East 377 434 12,000  Level New York Center
Thu 01:44:15 PM 39.7892 -74.7744 80° East 387 445 13,400 1,563 Climbing New York Center
Thu 01:45:16 PM 39.8022 -74.6347 83° East 387 445 15,100 1,820 Climbing New York Center
Thu 01:46:17 PM 39.8192 -74.4978 81° East 387 445 17,100 1,627 Climbing New York Center
Thu 01:47:14 PM 39.8608 -74.3675 67° East 382 440 18,300 1,077 Climbing New York Center
Thu 01:48:14 PM 39.9025 -74.2289 69° East 387 445 19,200 1,006 Climbing New York Center
Thu 01:50:07 PM 40.0250 -73.9736 58° Northeast 428 493 21,200 1,029 Climbing Boston Center
Thu 01:51:09 PM 40.0947 -73.8481 54° Northeast 428 493 22,200 871 Climbing Boston Center
Thu 01:52:11 PM 40.1642 -73.7206 54° Northeast 428 493 23,000 387 Climbing Boston Center
Thu 01:53:13 PM 40.2389 -73.5867 54° Northeast 454 522 23,000 484 Level Boston Center
Thu 01:54:15 PM 40.3139 -73.4497 54° Northeast 461 531 24,000 919 Climbing Boston Center
Thu 01:55:17 PM 40.4108 -73.3475 39° Northeast 457 526 24,900 871 Climbing Boston Center
Thu 01:56:19 PM 40.5122 -73.2511 36° Northeast 454 522 25,800 976 Climbing Boston Center
Thu 01:57:20 PM 40.6347 -73.1369 35° Northeast 452 520 26,900 1,073 Climbing Boston Center
Thu 01:58:22 PM 40.7406 -73.0339 36° Northeast 451 519 28,000 905 Climbing Boston Center
Thu 01:59:26 PM 40.8425 -72.9400 35° Northeast 450 518 28,800 476 Climbing Boston Center
Thu 02:00:28 PM 40.9453 -72.8411 36° Northeast 451 519 29,000 97 Climbing Boston Center
Thu 02:01:30 PM 41.0508 -72.7389 36° Northeast 463 533 29,000  Level Boston Center
Thu 02:02:31 PM 41.1547 -72.6389 36° Northeast 463 533 29,000  Level Boston Center
Thu 02:03:33 PM 41.2597 -72.5372 36° Northeast 463 533 29,000  Level Boston Center
Thu 02:04:35 PM 41.3636 -72.4356 36° Northeast 463 533 29,000  Level Boston Center
Thu 02:05:37 PM 41.4869 -72.3136 37° Northeast 463 533 29,000  Level Boston Center
Thu 02:06:39 PM 41.5917 -72.2111 36° Northeast 463 533 29,000  Level Boston Center
Thu 02:07:41 PM 41.6958 -72.1086 36° Northeast 463 533 29,000  Level Boston Center
Thu 02:08:43 PM 41.7992 -72.0067 36° Northeast 463 533 29,000  Level Boston Center
Thu 02:09:45 PM 41.9028 -71.9044 36° Northeast 463 533 29,000  Level Boston Center
Thu 02:10:46 PM 42.0061 -71.8017 36° Northeast 463 533 29,000  Level Boston Center
Thu 02:11:48 PM 42.1092 -71.6986 37° Northeast 463 533 29,000  Level Boston Center
Thu 02:12:50 PM 42.2325 -71.5731 37° Northeast 462 532 29,000  Level Boston Center
Thu 02:14:54 PM 42.4372 -71.3656 36° Northeast 462 532 29,000  Level Boston Center
Thu 02:15:56 PM 42.5403 -71.2614 37° Northeast 462 532 29,000  Level Boston Center
Thu 02:16:58 PM 42.6425 -71.1564 37° Northeast 461 531 29,000  Level Boston Center
Thu 02:18:00 PM 42.7447 -71.0508 37° Northeast 461 531 29,000  Level Boston Center
Thu 02:19:02 PM 42.8481 -70.9453 37° Northeast 461 531 29,000  Level Boston Center
Thu 02:20:03 PM 42.9706 -70.8169 37° Northeast 462 532 29,000  Level Boston Center
Thu 02:21:05 PM 43.0731 -70.7100 37° Northeast 462 532 29,000  Level Boston Center
Thu 02:22:07 PM 43.1761 -70.6017 37° Northeast 463 533 29,000 -290 Level Boston Center
Thu 02:23:09 PM 43.2792 -70.4936 37° Northeast 464 534 28,400 -774 Descending Boston Center
Thu 02:24:11 PM 43.3944 -70.3708 38° Northeast 488 562 27,400 -1,258 Descending Boston Center
Thu 02:25:13 PM 43.5053 -70.2539 37° Northeast 498 573 25,800 -1,500 Descending Boston Center
Thu 02:26:15 PM 43.6133 -70.1389 38° Northeast 492 566 24,300 -1,452 Descending Boston Center
Thu 02:27:17 PM 43.7192 -70.0258 38° Northeast 482 555 22,800 -1,610 Descending Boston Center
Thu 02:28:18 PM 43.8228 -69.9133 38° Northeast 476 548 21,000 -1,902 Descending Boston Center
Thu 02:29:20 PM 43.9389 -69.7889 38° Northeast 465 535 18,900 -1,984 Descending Boston Center
Thu 02:30:22 PM 44.0456 -69.6725 38° Northeast 456 525 16,900 -1,694 Descending Boston Center
Thu 02:31:24 PM 44.1417 -69.5681 38° Northeast 442 509 15,400 -1,694 Descending Boston Center
Thu 02:32:26 PM 44.2333 -69.4744 36° Northeast 409 471 13,400 -1,935 Descending Boston Center
Thu 02:33:28 PM 44.3328 -69.4253 19° North 377 434 11,400 -1,597 Descending Boston Center
Thu 02:34:30 PM 44.4225 -69.3861 17° North 339 390 10,100 -1,561 Descending Boston Center
Thu 02:35:31 PM 44.5064 -69.3483 18° North 320 368 8,200 -1,561 Descending Boston Center
Thu 02:36:33 PM 44.5856 -69.3067 21° North 310 357 6,900 -1,548 Descending Boston Center
Thu 02:37:35 PM 44.6731 -69.2583 21° North 289 333 5,000 -919 Descending Boston Center
Thu 02:38:37 PM 44.7408 -69.2192 22° Northeast 272 313 5,000 -339 Level Boston Center
Thu 02:39:39 PM 44.7969 -69.1903 20° North 223 257 4,300 -488 Descending Boston Center
Thu 02:40:40 PM 44.8497 -69.1608 22° Northeast 208 239 4,000 -537 Descending Boston Center
Thu 02:41:42 PM 44.9028 -69.1811 345° North 203 234 3,200 -484 Descending Boston Center
Thu 02:42:44 PM 44.9517 -69.1700 North 199 229 3,000 -97 Descending Boston Center
Thu 02:43:46 PM 44.9753 -69.0942 66° East 204 235 3,000  Level Boston Center
Thu 02:44:47 PM 44.9519 -69.0356 119° Southeast 177 204 3,000 -439 Level Boston Center
Thu 02:45:49 PM 44.9175 -68.9897 137° Southeast 174 200 2,100 -435 Descending Boston Center
Thu 02:46:51 PM 44.8853 -68.9431 134° Southeast 170 196 2,100 -390 Level Boston Center
Thu 02:47:52 PM 44.8569 -68.9011 134° Southeast 160 184 1,300 -732 Descending Boston Center
Thu 02:48:54 PM 44.8294 -68.8617 135° Southeast 149 171 600 -484 Descending Boston Center
Thu 02:49:56 PM 44.8036 -68.8242 134° Southeast 146 168 300 -290 Descending Boston Center

Login

Don't have an account? Register now (free) for customized features, flight alerts, and more!